Terminal Aerodrome Forecast
Issued by NWS

Home | Current Version | Previous Version | Text Only | Print | Product List | Glossary On
Versions: 1 2 3 4 5 6 7 8 9 10
469
FTUS46 KSEW 240540
TAFCLM
TAF
KCLM 240540Z 2406/2506 22004KT P6SM VCSH SCT012 OVC018
     FM241300 VRB03KT 5SM -SHRA BR SCT008 BKN012 OVC018
     FM241700 02004KT P6SM SCT015 BKN030
     FM242000 32008KT P6SM VCSH SCT035
     FM250000 29008KT P6SM SKC=

USA.gov is the U.S. government's official web portal to all federal, state and local government web resources and services.